sensor_id;sensor_type;location;lat;lon;timestamp;temperature;humidity
25352;DHT22;13304;48.464;8.712;2023-02-15T00:01:44;4.40;85.10
25352;DHT22;13304;48.464;8.712;2023-02-15T00:04:12;4.30;84.90
25352;DHT22;13304;48.464;8.712;2023-02-15T00:06:39;4.30;84.80
25352;DHT22;13304;48.464;8.712;2023-02-15T00:09:04;4.30;84.70
25352;DHT22;13304;48.464;8.712;2023-02-15T00:11:30;4.40;84.80
25352;DHT22;13304;48.464;8.712;2023-02-15T00:14:15;4.30;84.70
25352;DHT22;13304;48.464;8.712;2023-02-15T00:16:43;4.30;84.50
25352;DHT22;13304;48.464;8.712;2023-02-15T00:19:10;4.30;84.40
25352;DHT22;13304;48.464;8.712;2023-02-15T00:21:36;4.30;84.20
25352;DHT22;13304;48.464;8.712;2023-02-15T00:24:04;4.30;84.20
25352;DHT22;13304;48.464;8.712;2023-02-15T00:26:31;4.30;84.30
25352;DHT22;13304;48.464;8.712;2023-02-15T00:28:57;4.30;84.90
25352;DHT22;13304;48.464;8.712;2023-02-15T00:31:30;4.30;85.10
25352;DHT22;13304;48.464;8.712;2023-02-15T00:34:02;4.30;85.40
25352;DHT22;13304;48.464;8.712;2023-02-15T00:36:28;4.20;85.40
25352;DHT22;13304;48.464;8.712;2023-02-15T00:38:53;4.20;85.20
25352;DHT22;13304;48.464;8.712;2023-02-15T00:41:19;4.20;85.50
25352;DHT22;13304;48.464;8.712;2023-02-15T00:43:45;4.10;85.10
25352;DHT22;13304;48.464;8.712;2023-02-15T00:46:11;4.10;84.90
25352;DHT22;13304;48.464;8.712;2023-02-15T00:48:36;4.10;84.50
25352;DHT22;13304;48.464;8.712;2023-02-15T00:51:02;4.10;84.30
25352;DHT22;13304;48.464;8.712;2023-02-15T00:53:29;4.10;84.20
25352;DHT22;13304;48.464;8.712;2023-02-15T00:55:54;4.10;84.10
25352;DHT22;13304;48.464;8.712;2023-02-15T00:58:20;4.10;84.20
25352;DHT22;13304;48.464;8.712;2023-02-15T01:00:47;4.00;84.10
25352;DHT22;13304;48.464;8.712;2023-02-15T01:03:15;4.00;84.10
25352;DHT22;13304;48.464;8.712;2023-02-15T01:05:41;4.00;84.10
25352;DHT22;13304;48.464;8.712;2023-02-15T01:08:07;4.00;84.00
25352;DHT22;13304;48.464;8.712;2023-02-15T01:10:34;4.00;83.90
25352;DHT22;13304;48.464;8.712;2023-02-15T01:13:00;4.00;83.70
25352;DHT22;13304;48.464;8.712;2023-02-15T01:15:26;3.90;83.60
25352;DHT22;13304;48.464;8.712;2023-02-15T01:17:52;3.90;83.50
25352;DHT22;13304;48.464;8.712;2023-02-15T01:20:25;3.90;83.60
25352;DHT22;13304;48.464;8.712;2023-02-15T01:22:52;3.80;84.30
25352;DHT22;13304;48.464;8.712;2023-02-15T01:25:19;3.80;83.70
25352;DHT22;13304;48.464;8.712;2023-02-15T01:27:45;3.80;83.80
25352;DHT22;13304;48.464;8.712;2023-02-15T01:30:12;3.80;83.90
25352;DHT22;13304;48.464;8.712;2023-02-15T01:32:38;3.70;83.90
25352;DHT22;13304;48.464;8.712;2023-02-15T01:35:04;3.70;83.90
25352;DHT22;13304;48.464;8.712;2023-02-15T01:37:31;3.60;84.00
25352;DHT22;13304;48.464;8.712;2023-02-15T01:39:57;3.70;84.20
25352;DHT22;13304;48.464;8.712;2023-02-15T01:42:24;3.60;84.20
25352;DHT22;13304;48.464;8.712;2023-02-15T01:44:52;3.60;84.30
25352;DHT22;13304;48.464;8.712;2023-02-15T01:47:23;3.60;84.40
25352;DHT22;13304;48.464;8.712;2023-02-15T01:50:18;3.60;84.70
25352;DHT22;13304;48.464;8.712;2023-02-15T01:53:14;3.60;84.70
25352;DHT22;13304;48.464;8.712;2023-02-15T01:55:47;3.60;84.90
25352;DHT22;13304;48.464;8.712;2023-02-15T01:58:16;3.60;84.80
25352;DHT22;13304;48.464;8.712;2023-02-15T02:00:43;3.60;84.70
25352;DHT22;13304;48.464;8.712;2023-02-15T02:03:09;3.60;84.70
25352;DHT22;13304;48.464;8.712;2023-02-15T02:05:35;3.60;84.70
25352;DHT22;13304;48.464;8.712;2023-02-15T02:08:02;3.60;84.60
25352;DHT22;13304;48.464;8.712;2023-02-15T02:10:28;3.60;84.80
25352;DHT22;13304;48.464;8.712;2023-02-15T02:13:00;3.60;85.00
25352;DHT22;13304;48.464;8.712;2023-02-15T02:15:45;3.60;85.10
25352;DHT22;13304;48.464;8.712;2023-02-15T02:18:37;3.60;84.90
25352;DHT22;13304;48.464;8.712;2023-02-15T02:34:16;3.50;85.00
25352;DHT22;13304;48.464;8.712;2023-02-15T02:39:55;3.50;85.10
25352;DHT22;13304;48.464;8.712;2023-02-15T02:42:34;3.50;84.80
25352;DHT22;13304;48.464;8.712;2023-02-15T02:50:16;3.40;84.20
25352;DHT22;13304;48.464;8.712;2023-02-15T02:52:47;3.40;84.00
25352;DHT22;13304;48.464;8.712;2023-02-15T02:55:29;3.40;83.90
25352;DHT22;13304;48.464;8.712;2023-02-15T03:01:00;3.30;84.00
25352;DHT22;13304;48.464;8.712;2023-02-15T03:03:41;3.30;83.90
25352;DHT22;13304;48.464;8.712;2023-02-15T03:06:13;3.30;83.90
25352;DHT22;13304;48.464;8.712;2023-02-15T03:08:49;3.30;83.80
25352;DHT22;13304;48.464;8.712;2023-02-15T03:11:16;3.20;83.70
25352;DHT22;13304;48.464;8.712;2023-02-15T03:13:44;3.20;83.60
25352;DHT22;13304;48.464;8.712;2023-02-15T03:16:12;3.10;83.60
25352;DHT22;13304;48.464;8.712;2023-02-15T03:19:07;3.10;83.90
25352;DHT22;13304;48.464;8.712;2023-02-15T03:24:21;3.10;84.30
25352;DHT22;13304;48.464;8.712;2023-02-15T03:26:50;3.00;84.30
25352;DHT22;13304;48.464;8.712;2023-02-15T03:29:21;3.10;84.50
25352;DHT22;13304;48.464;8.712;2023-02-15T03:32:03;3.10;84.50
25352;DHT22;13304;48.464;8.712;2023-02-15T03:34:30;3.00;84.40
25352;DHT22;13304;48.464;8.712;2023-02-15T03:45:33;3.10;84.70
25352;DHT22;13304;48.464;8.712;2023-02-15T03:48:01;3.10;84.90
25352;DHT22;13304;48.464;8.712;2023-02-15T03:50:30;3.10;85.20
25352;DHT22;13304;48.464;8.712;2023-02-15T03:53:18;3.10;85.10
25352;DHT22;13304;48.464;8.712;2023-02-15T03:55:54;3.10;85.10
25352;DHT22;13304;48.464;8.712;2023-02-15T03:58:20;3.10;85.30
25352;DHT22;13304;48.464;8.712;2023-02-15T04:01:13;3.10;85.20
25352;DHT22;13304;48.464;8.712;2023-02-15T04:04:23;3.10;85.30
25352;DHT22;13304;48.464;8.712;2023-02-15T04:06:50;3.10;85.40
25352;DHT22;13304;48.464;8.712;2023-02-15T04:09:16;3.10;85.10
25352;DHT22;13304;48.464;8.712;2023-02-15T04:12:00;3.10;85.00
25352;DHT22;13304;48.464;8.712;2023-02-15T04:14:26;3.10;84.90
25352;DHT22;13304;48.464;8.712;2023-02-15T04:17:10;3.10;85.00
25352;DHT22;13304;48.464;8.712;2023-02-15T04:19:36;3.10;85.00
25352;DHT22;13304;48.464;8.712;2023-02-15T04:22:20;3.10;85.00
25352;DHT22;13304;48.464;8.712;2023-02-15T04:25:05;3.10;85.60
25352;DHT22;13304;48.464;8.712;2023-02-15T04:27:45;3.10;84.50
25352;DHT22;13304;48.464;8.712;2023-02-15T04:30:13;3.10;84.10
25352;DHT22;13304;48.464;8.712;2023-02-15T04:32:39;3.00;83.80
25352;DHT22;13304;48.464;8.712;2023-02-15T04:35:06;3.00;83.60
25352;DHT22;13304;48.464;8.712;2023-02-15T04:37:33;3.00;83.40
25352;DHT22;13304;48.464;8.712;2023-02-15T04:39:59;2.90;83.50
25352;DHT22;13304;48.464;8.712;2023-02-15T04:42:25;2.90;83.70
25352;DHT22;13304;48.464;8.712;2023-02-15T04:44:52;2.80;83.90
25352;DHT22;13304;48.464;8.712;2023-02-15T04:47:18;2.80;84.20
25352;DHT22;13304;48.464;8.712;2023-02-15T04:49:44;2.70;84.30
25352;DHT22;13304;48.464;8.712;2023-02-15T04:52:10;2.70;84.20
25352;DHT22;13304;48.464;8.712;2023-02-15T04:54:36;2.70;84.20
25352;DHT22;13304;48.464;8.712;2023-02-15T04:57:03;2.70;84.30
25352;DHT22;13304;48.464;8.712;2023-02-15T04:59:29;2.70;84.40
25352;DHT22;13304;48.464;8.712;2023-02-15T05:01:55;2.70;84.50
25352;DHT22;13304;48.464;8.712;2023-02-15T05:04:20;2.70;84.50
25352;DHT22;13304;48.464;8.712;2023-02-15T05:06:46;2.70;84.50
25352;DHT22;13304;48.464;8.712;2023-02-15T05:09:15;2.70;84.40
25352;DHT22;13304;48.464;8.712;2023-02-15T05:11:40;2.70;84.30
25352;DHT22;13304;48.464;8.712;2023-02-15T05:14:06;2.70;84.30
25352;DHT22;13304;48.464;8.712;2023-02-15T05:16:32;2.70;84.30
25352;DHT22;13304;48.464;8.712;2023-02-15T05:18:58;2.70;84.20
25352;DHT22;13304;48.464;8.712;2023-02-15T05:21:24;2.70;84.10
25352;DHT22;13304;48.464;8.712;2023-02-15T05:23:50;2.70;84.10
25352;DHT22;13304;48.464;8.712;2023-02-15T05:26:21;2.60;83.90
25352;DHT22;13304;48.464;8.712;2023-02-15T05:29:06;2.60;84.00
25352;DHT22;13304;48.464;8.712;2023-02-15T05:31:32;2.60;84.20
25352;DHT22;13304;48.464;8.712;2023-02-15T05:33:59;2.60;84.30
25352;DHT22;13304;48.464;8.712;2023-02-15T05:36:24;2.60;84.30
25352;DHT22;13304;48.464;8.712;2023-02-15T05:38:50;2.50;84.20
25352;DHT22;13304;48.464;8.712;2023-02-15T05:41:16;2.50;84.20
25352;DHT22;13304;48.464;8.712;2023-02-15T05:43:42;2.50;84.30
25352;DHT22;13304;48.464;8.712;2023-02-15T05:46:08;2.50;84.50
25352;DHT22;13304;48.464;8.712;2023-02-15T05:48:34;2.50;84.70
25352;DHT22;13304;48.464;8.712;2023-02-15T05:51:09;2.50;84.60
25352;DHT22;13304;48.464;8.712;2023-02-15T05:53:39;2.50;84.70
25352;DHT22;13304;48.464;8.712;2023-02-15T05:56:06;2.50;84.80
25352;DHT22;13304;48.464;8.712;2023-02-15T05:58:35;2.50;85.60
25352;DHT22;13304;48.464;8.712;2023-02-15T06:01:12;2.50;85.00
25352;DHT22;13304;48.464;8.712;2023-02-15T06:03:38;2.40;85.40
25352;DHT22;13304;48.464;8.712;2023-02-15T06:06:05;2.40;85.40
25352;DHT22;13304;48.464;8.712;2023-02-15T06:08:32;2.40;85.50
25352;DHT22;13304;48.464;8.712;2023-02-15T06:10:58;2.40;85.40
25352;DHT22;13304;48.464;8.712;2023-02-15T06:13:24;2.40;85.10
25352;DHT22;13304;48.464;8.712;2023-02-15T06:15:49;2.40;84.90
25352;DHT22;13304;48.464;8.712;2023-02-15T06:18:15;2.40;84.80
25352;DHT22;13304;48.464;8.712;2023-02-15T06:20:41;2.40;84.70
25352;DHT22;13304;48.464;8.712;2023-02-15T06:23:07;2.40;84.80
25352;DHT22;13304;48.464;8.712;2023-02-15T06:25:32;2.40;84.80
25352;DHT22;13304;48.464;8.712;2023-02-15T06:27:58;2.40;84.90
25352;DHT22;13304;48.464;8.712;2023-02-15T06:30:24;2.30;85.00
25352;DHT22;13304;48.464;8.712;2023-02-15T06:32:50;2.40;85.10
25352;DHT22;13304;48.464;8.712;2023-02-15T06:35:15;2.30;85.20
25352;DHT22;13304;48.464;8.712;2023-02-15T06:37:41;2.30;85.30
25352;DHT22;13304;48.464;8.712;2023-02-15T06:40:07;2.30;85.40
25352;DHT22;13304;48.464;8.712;2023-02-15T06:42:33;2.30;85.50
25352;DHT22;13304;48.464;8.712;2023-02-15T06:44:59;2.30;85.50
25352;DHT22;13304;48.464;8.712;2023-02-15T06:47:25;2.20;85.20
25352;DHT22;13304;48.464;8.712;2023-02-15T06:49:51;2.20;85.20
25352;DHT22;13304;48.464;8.712;2023-02-15T06:52:17;2.20;85.40
25352;DHT22;13304;48.464;8.712;2023-02-15T06:54:42;2.20;85.50
25352;DHT22;13304;48.464;8.712;2023-02-15T06:57:09;2.20;85.70
25352;DHT22;13304;48.464;8.712;2023-02-15T06:59:35;2.20;85.60
25352;DHT22;13304;48.464;8.712;2023-02-15T07:02:01;2.20;85.70
25352;DHT22;13304;48.464;8.712;2023-02-15T07:04:27;2.20;85.90
25352;DHT22;13304;48.464;8.712;2023-02-15T07:06:54;2.20;86.20
25352;DHT22;13304;48.464;8.712;2023-02-15T07:09:20;2.20;86.30
25352;DHT22;13304;48.464;8.712;2023-02-15T07:11:46;2.30;86.60
25352;DHT22;13304;48.464;8.712;2023-02-15T07:14:30;2.30;86.80
25352;DHT22;13304;48.464;8.712;2023-02-15T07:16:57;2.30;86.80
25352;DHT22;13304;48.464;8.712;2023-02-15T07:19:23;2.30;86.80
25352;DHT22;13304;48.464;8.712;2023-02-15T07:21:49;2.30;86.70
25352;DHT22;13304;48.464;8.712;2023-02-15T07:24:14;2.40;86.70
25352;DHT22;13304;48.464;8.712;2023-02-15T07:26:40;2.40;86.60
25352;DHT22;13304;48.464;8.712;2023-02-15T07:29:06;2.40;86.60
25352;DHT22;13304;48.464;8.712;2023-02-15T07:31:32;2.50;86.70
25352;DHT22;13304;48.464;8.712;2023-02-15T07:33:57;2.50;86.70
25352;DHT22;13304;48.464;8.712;2023-02-15T07:36:23;2.50;86.60
25352;DHT22;13304;48.464;8.712;2023-02-15T07:38:49;2.60;86.60
25352;DHT22;13304;48.464;8.712;2023-02-15T07:41:15;2.60;86.50
25352;DHT22;13304;48.464;8.712;2023-02-15T07:43:43;2.70;86.50
25352;DHT22;13304;48.464;8.712;2023-02-15T07:46:12;2.70;86.10
25352;DHT22;13304;48.464;8.712;2023-02-15T07:48:39;2.80;85.70
25352;DHT22;13304;48.464;8.712;2023-02-15T07:51:07;2.80;85.60
25352;DHT22;13304;48.464;8.712;2023-02-15T07:53:34;2.80;84.90
25352;DHT22;13304;48.464;8.712;2023-02-15T07:56:14;2.90;85.00
25352;DHT22;13304;48.464;8.712;2023-02-15T07:58:40;3.00;86.00
25352;DHT22;13304;48.464;8.712;2023-02-15T08:01:25;3.10;84.90
25352;DHT22;13304;48.464;8.712;2023-02-15T08:03:51;3.20;84.50
25352;DHT22;13304;48.464;8.712;2023-02-15T08:06:18;3.30;84.80
25352;DHT22;13304;48.464;8.712;2023-02-15T08:08:44;3.40;84.10
25352;DHT22;13304;48.464;8.712;2023-02-15T08:11:29;3.40;84.00
25352;DHT22;13304;48.464;8.712;2023-02-15T08:14:07;3.50;83.60
25352;DHT22;13304;48.464;8.712;2023-02-15T08:16:44;3.60;82.90
25352;DHT22;13304;48.464;8.712;2023-02-15T08:19:17;3.70;82.80
25352;DHT22;13304;48.464;8.712;2023-02-15T08:21:48;3.80;82.40
25352;DHT22;13304;48.464;8.712;2023-02-15T08:24:22;3.90;83.00
25352;DHT22;13304;48.464;8.712;2023-02-15T08:26:49;4.00;83.10
25352;DHT22;13304;48.464;8.712;2023-02-15T08:29:16;4.10;83.50
25352;DHT22;13304;48.464;8.712;2023-02-15T08:31:43;4.20;83.50
25352;DHT22;13304;48.464;8.712;2023-02-15T08:34:09;4.20;82.70
25352;DHT22;13304;48.464;8.712;2023-02-15T08:36:37;4.30;82.60
25352;DHT22;13304;48.464;8.712;2023-02-15T08:39:04;4.40;82.70
25352;DHT22;13304;48.464;8.712;2023-02-15T08:41:36;4.50;82.60
25352;DHT22;13304;48.464;8.712;2023-02-15T08:44:05;4.50;82.50
25352;DHT22;13304;48.464;8.712;2023-02-15T08:46:34;4.60;82.40
25352;DHT22;13304;48.464;8.712;2023-02-15T08:49:00;4.70;82.20
25352;DHT22;13304;48.464;8.712;2023-02-15T08:51:38;4.70;81.00
25352;DHT22;13304;48.464;8.712;2023-02-15T08:54:10;4.90;81.90
25352;DHT22;13304;48.464;8.712;2023-02-15T08:56:38;5.00;81.50
25352;DHT22;13304;48.464;8.712;2023-02-15T08:59:06;5.10;80.70
25352;DHT22;13304;48.464;8.712;2023-02-15T09:01:33;5.20;80.70
25352;DHT22;13304;48.464;8.712;2023-02-15T09:04:05;5.30;80.10
25352;DHT22;13304;48.464;8.712;2023-02-15T09:06:34;5.30;78.90
25352;DHT22;13304;48.464;8.712;2023-02-15T09:09:00;5.50;80.00
25352;DHT22;13304;48.464;8.712;2023-02-15T09:11:32;5.50;79.30
25352;DHT22;13304;48.464;8.712;2023-02-15T09:14:00;5.60;79.30
25352;DHT22;13304;48.464;8.712;2023-02-15T09:16:29;5.70;79.40
25352;DHT22;13304;48.464;8.712;2023-02-15T09:18:56;5.80;79.20
25352;DHT22;13304;48.464;8.712;2023-02-15T09:21:27;5.80;76.40
25352;DHT22;13304;48.464;8.712;2023-02-15T09:23:57;6.00;79.10
25352;DHT22;13304;48.464;8.712;2023-02-15T09:26:25;6.10;78.90
25352;DHT22;13304;48.464;8.712;2023-02-15T09:28:53;6.20;79.40
25352;DHT22;13304;48.464;8.712;2023-02-15T09:31:25;6.30;77.40
25352;DHT22;13304;48.464;8.712;2023-02-15T09:33:52;6.40;78.10
25352;DHT22;13304;48.464;8.712;2023-02-15T09:36:27;6.50;77.60
25352;DHT22;13304;48.464;8.712;2023-02-15T09:53:29;7.00;76.80
25352;DHT22;13304;48.464;8.712;2023-02-15T10:06:44;7.50;76.30
25352;DHT22;13304;48.464;8.712;2023-02-15T10:09:25;7.60;77.70
25352;DHT22;13304;48.464;8.712;2023-02-15T10:14:50;7.80;77.30
25352;DHT22;13304;48.464;8.712;2023-02-15T10:17:38;7.90;76.40
25352;DHT22;13304;48.464;8.712;2023-02-15T10:28:05;8.20;75.80
25352;DHT22;13304;48.464;8.712;2023-02-15T10:30:44;8.30;75.60
25352;DHT22;13304;48.464;8.712;2023-02-15T10:33:37;8.40;75.90
25352;DHT22;13304;48.464;8.712;2023-02-15T10:44:14;8.70;73.70
25352;DHT22;13304;48.464;8.712;2023-02-15T10:46:58;8.80;75.30
25352;DHT22;13304;48.464;8.712;2023-02-15T10:49:59;8.90;75.00
25352;DHT22;13304;48.464;8.712;2023-02-15T10:58:21;9.20;74.80
25352;DHT22;13304;48.464;8.712;2023-02-15T11:03:40;9.30;74.90
25352;DHT22;13304;48.464;8.712;2023-02-15T11:06:11;9.40;75.50
25352;DHT22;13304;48.464;8.712;2023-02-15T11:08:44;9.50;75.30
25352;DHT22;13304;48.464;8.712;2023-02-15T11:13:51;9.70;74.60
25352;DHT22;13304;48.464;8.712;2023-02-15T11:16:25;9.70;74.80
25352;DHT22;13304;48.464;8.712;2023-02-15T11:18:52;9.80;74.50
25352;DHT22;13304;48.464;8.712;2023-02-15T11:24:09;9.90;73.90
25352;DHT22;13304;48.464;8.712;2023-02-15T11:26:46;10.00;74.00
25352;DHT22;13304;48.464;8.712;2023-02-15T11:29:23;10.10;73.90
25352;DHT22;13304;48.464;8.712;2023-02-15T11:31:55;10.10;73.90
25352;DHT22;13304;48.464;8.712;2023-02-15T11:34:37;10.20;74.00
25352;DHT22;13304;48.464;8.712;2023-02-15T11:37:18;10.20;73.50
25352;DHT22;13304;48.464;8.712;2023-02-15T11:39:43;10.30;73.40
25352;DHT22;13304;48.464;8.712;2023-02-15T11:42:14;10.40;74.00
25352;DHT22;13304;48.464;8.712;2023-02-15T11:47:36;10.50;73.10
25352;DHT22;13304;48.464;8.712;2023-02-15T11:50:01;10.60;73.90
25352;DHT22;13304;48.464;8.712;2023-02-15T11:52:28;10.60;74.00
25352;DHT22;13304;48.464;8.712;2023-02-15T11:54:54;10.70;74.50
25352;DHT22;13304;48.464;8.712;2023-02-15T12:00:00;10.80;72.80
25352;DHT22;13304;48.464;8.712;2023-02-15T12:02:26;10.80;72.30
25352;DHT22;13304;48.464;8.712;2023-02-15T12:05:03;10.90;73.20
25352;DHT22;13304;48.464;8.712;2023-02-15T12:07:44;11.00;72.60
25352;DHT22;13304;48.464;8.712;2023-02-15T12:10:27;11.00;72.10
25352;DHT22;13304;48.464;8.712;2023-02-15T12:13:11;11.10;71.80
25352;DHT22;13304;48.464;8.712;2023-02-15T12:15:38;11.20;71.60
25352;DHT22;13304;48.464;8.712;2023-02-15T12:21:07;11.20;70.50
25352;DHT22;13304;48.464;8.712;2023-02-15T12:23:50;11.30;69.10
25352;DHT22;13304;48.464;8.712;2023-02-15T12:26:28;11.30;68.70
25352;DHT22;13304;48.464;8.712;2023-02-15T12:28:57;11.40;70.20
25352;DHT22;13304;48.464;8.712;2023-02-15T12:31:40;11.40;70.70
25352;DHT22;13304;48.464;8.712;2023-02-15T12:34:16;11.50;69.80
25352;DHT22;13304;48.464;8.712;2023-02-15T12:36:47;11.50;67.30
25352;DHT22;13304;48.464;8.712;2023-02-15T12:39:25;11.50;68.00
25352;DHT22;13304;48.464;8.712;2023-02-15T12:44:33;11.60;65.60
25352;DHT22;13304;48.464;8.712;2023-02-15T12:47:09;11.60;65.90
25352;DHT22;13304;48.464;8.712;2023-02-15T12:49:43;11.70;64.60
25352;DHT22;13304;48.464;8.712;2023-02-15T12:54:45;11.80;65.90
25352;DHT22;13304;48.464;8.712;2023-02-15T12:57:31;11.90;66.20
25352;DHT22;13304;48.464;8.712;2023-02-15T13:00:12;12.00;66.50
25352;DHT22;13304;48.464;8.712;2023-02-15T13:02:52;12.00;66.20
25352;DHT22;13304;48.464;8.712;2023-02-15T13:08:17;12.10;65.80
25352;DHT22;13304;48.464;8.712;2023-02-15T13:11:10;12.20;64.30
25352;DHT22;13304;48.464;8.712;2023-02-15T13:13:55;12.20;65.20
25352;DHT22;13304;48.464;8.712;2023-02-15T13:16:39;12.30;63.90
25352;DHT22;13304;48.464;8.712;2023-02-15T13:19:33;12.30;62.20
25352;DHT22;13304;48.464;8.712;2023-02-15T13:22:06;12.40;62.70
25352;DHT22;13304;48.464;8.712;2023-02-15T13:24:37;12.40;62.80
25352;DHT22;13304;48.464;8.712;2023-02-15T13:27:04;12.50;62.50
25352;DHT22;13304;48.464;8.712;2023-02-15T13:29:36;12.60;62.60
25352;DHT22;13304;48.464;8.712;2023-02-15T13:32:35;12.60;62.60
25352;DHT22;13304;48.464;8.712;2023-02-15T13:35:03;12.70;62.60
25352;DHT22;13304;48.464;8.712;2023-02-15T13:54:36;12.90;64.80
25352;DHT22;13304;48.464;8.712;2023-02-15T13:57:37;12.90;65.30
25352;DHT22;13304;48.464;8.712;2023-02-15T14:00:12;13.00;63.60
25352;DHT22;13304;48.464;8.712;2023-02-15T14:06:05;13.10;60.90
25352;DHT22;13304;48.464;8.712;2023-02-15T14:20:00;13.10;57.10
25352;DHT22;13304;48.464;8.712;2023-02-15T14:22:43;13.20;57.90
25352;DHT22;13304;48.464;8.712;2023-02-15T14:25:27;13.20;57.00
25352;DHT22;13304;48.464;8.712;2023-02-15T14:28:03;13.20;56.70
25352;DHT22;13304;48.464;8.712;2023-02-15T14:30:41;13.20;56.10
25352;DHT22;13304;48.464;8.712;2023-02-15T14:33:19;13.20;56.50
25352;DHT22;13304;48.464;8.712;2023-02-15T14:35:49;13.30;56.70
25352;DHT22;13304;48.464;8.712;2023-02-15T14:38:25;13.30;57.80
25352;DHT22;13304;48.464;8.712;2023-02-15T14:54:08;13.40;54.20
25352;DHT22;13304;48.464;8.712;2023-02-15T14:56:35;13.50;55.60
25352;DHT22;13304;48.464;8.712;2023-02-15T15:01:43;13.40;56.50
25352;DHT22;13304;48.464;8.712;2023-02-15T15:04:27;13.50;56.60
25352;DHT22;13304;48.464;8.712;2023-02-15T15:07:03;13.40;55.90
25352;DHT22;13304;48.464;8.712;2023-02-15T15:09:35;13.40;55.10
25352;DHT22;13304;48.464;8.712;2023-02-15T15:14:46;13.50;55.60
25352;DHT22;13304;48.464;8.712;2023-02-15T15:19:58;13.50;55.80
25352;DHT22;13304;48.464;8.712;2023-02-15T15:22:26;13.50;56.20
25352;DHT22;13304;48.464;8.712;2023-02-15T15:24:56;13.40;55.90
25352;DHT22;13304;48.464;8.712;2023-02-15T15:27:51;13.50;55.70
25352;DHT22;13304;48.464;8.712;2023-02-15T15:47:02;13.30;54.70
25352;DHT22;13304;48.464;8.712;2023-02-15T15:49:37;13.30;55.20
25352;DHT22;13304;48.464;8.712;2023-02-15T15:52:14;13.30;55.60
25352;DHT22;13304;48.464;8.712;2023-02-15T15:54:42;13.30;55.20
25352;DHT22;13304;48.464;8.712;2023-02-15T15:59:44;13.20;55.70
25352;DHT22;13304;48.464;8.712;2023-02-15T16:02:15;13.20;55.80
25352;DHT22;13304;48.464;8.712;2023-02-15T16:04:43;13.10;56.10
25352;DHT22;13304;48.464;8.712;2023-02-15T16:10:23;13.00;56.30
25352;DHT22;13304;48.464;8.712;2023-02-15T16:12:49;13.00;56.70
25352;DHT22;13304;48.464;8.712;2023-02-15T16:15:53;12.90;56.90
25352;DHT22;13304;48.464;8.712;2023-02-15T16:18:16;12.80;57.40
25352;DHT22;13304;48.464;8.712;2023-02-15T16:20:50;12.80;57.90
25352;DHT22;13304;48.464;8.712;2023-02-15T16:28:29;12.50;58.10
25352;DHT22;13304;48.464;8.712;2023-02-15T16:31:12;12.40;58.40
25352;DHT22;13304;48.464;8.712;2023-02-15T16:33:40;12.30;58.30
25352;DHT22;13304;48.464;8.712;2023-02-15T16:36:11;12.20;58.50
25352;DHT22;13304;48.464;8.712;2023-02-15T16:41:28;12.00;58.80
25352;DHT22;13304;48.464;8.712;2023-02-15T16:43:57;11.90;59.10
25352;DHT22;13304;48.464;8.712;2023-02-15T16:46:25;11.80;59.30
25352;DHT22;13304;48.464;8.712;2023-02-15T16:48:53;11.70;59.50
25352;DHT22;13304;48.464;8.712;2023-02-15T16:51:28;11.60;59.70
25352;DHT22;13304;48.464;8.712;2023-02-15T16:53:56;11.50;59.80
25352;DHT22;13304;48.464;8.712;2023-02-15T16:56:30;11.40;60.20
25352;DHT22;13304;48.464;8.712;2023-02-15T16:58:57;11.30;60.40
25352;DHT22;13304;48.464;8.712;2023-02-15T17:01:26;11.20;60.60
25352;DHT22;13304;48.464;8.712;2023-02-15T17:04:13;11.10;61.00
25352;DHT22;13304;48.464;8.712;2023-02-15T17:06:39;11.00;61.50
25352;DHT22;13304;48.464;8.712;2023-02-15T17:09:23;10.90;61.40
25352;DHT22;13304;48.464;8.712;2023-02-15T17:11:50;10.80;61.90
25352;DHT22;13304;48.464;8.712;2023-02-15T17:14:28;10.70;62.00
25352;DHT22;13304;48.464;8.712;2023-02-15T17:19:24;10.50;62.60
25352;DHT22;13304;48.464;8.712;2023-02-15T17:22:05;10.50;62.80
25352;DHT22;13304;48.464;8.712;2023-02-15T17:27:06;10.30;63.00
25352;DHT22;13304;48.464;8.712;2023-02-15T17:29:38;10.20;63.20
25352;DHT22;13304;48.464;8.712;2023-02-15T17:32:12;10.10;63.50
25352;DHT22;13304;48.464;8.712;2023-02-15T17:34:49;10.10;63.70
25352;DHT22;13304;48.464;8.712;2023-02-15T17:37:28;10.00;63.80
25352;DHT22;13304;48.464;8.712;2023-02-15T17:39:54;9.90;63.80
25352;DHT22;13304;48.464;8.712;2023-02-15T17:42:20;9.90;64.00
25352;DHT22;13304;48.464;8.712;2023-02-15T17:44:46;9.80;64.00
25352;DHT22;13304;48.464;8.712;2023-02-15T17:47:19;9.70;64.20
25352;DHT22;13304;48.464;8.712;2023-02-15T17:49:46;9.70;64.50
25352;DHT22;13304;48.464;8.712;2023-02-15T17:52:15;9.60;64.60
25352;DHT22;13304;48.464;8.712;2023-02-15T17:54:41;9.50;64.60
25352;DHT22;13304;48.464;8.712;2023-02-15T17:57:26;9.50;64.70
25352;DHT22;13304;48.464;8.712;2023-02-15T17:59:53;9.40;65.60
25352;DHT22;13304;48.464;8.712;2023-02-15T18:02:38;9.40;65.10
25352;DHT22;13304;48.464;8.712;2023-02-15T18:05:22;9.30;65.10
25352;DHT22;13304;48.464;8.712;2023-02-15T18:08:18;9.20;65.00
25352;DHT22;13304;48.464;8.712;2023-02-15T18:11:05;9.20;65.20
25352;DHT22;13304;48.464;8.712;2023-02-15T18:13:49;9.20;65.30
25352;DHT22;13304;48.464;8.712;2023-02-15T18:16:19;9.10;65.40
25352;DHT22;13304;48.464;8.712;2023-02-15T18:18:46;9.10;65.50
25352;DHT22;13304;48.464;8.712;2023-02-15T18:21:11;9.00;65.60
25352;DHT22;13304;48.464;8.712;2023-02-15T18:23:38;9.00;65.70
25352;DHT22;13304;48.464;8.712;2023-02-15T18:26:04;8.90;65.70
25352;DHT22;13304;48.464;8.712;2023-02-15T18:28:30;8.90;65.60
25352;DHT22;13304;48.464;8.712;2023-02-15T18:30:57;8.80;65.80
25352;DHT22;13304;48.464;8.712;2023-02-15T18:33:34;8.80;66.10
25352;DHT22;13304;48.464;8.712;2023-02-15T18:36:02;8.70;66.20
25352;DHT22;13304;48.464;8.712;2023-02-15T18:38:29;8.70;66.20
25352;DHT22;13304;48.464;8.712;2023-02-15T18:40:55;8.70;66.10
25352;DHT22;13304;48.464;8.712;2023-02-15T18:43:21;8.60;65.90
25352;DHT22;13304;48.464;8.712;2023-02-15T18:45:47;8.60;65.80
25352;DHT22;13304;48.464;8.712;2023-02-15T18:48:12;8.50;65.90
25352;DHT22;13304;48.464;8.712;2023-02-15T18:50:40;8.50;66.20
25352;DHT22;13304;48.464;8.712;2023-02-15T18:53:18;8.40;66.30
25352;DHT22;13304;48.464;8.712;2023-02-15T18:55:44;8.40;66.50
25352;DHT22;13304;48.464;8.712;2023-02-15T18:58:18;8.40;66.50
25352;DHT22;13304;48.464;8.712;2023-02-15T19:00:44;8.30;66.70
25352;DHT22;13304;48.464;8.712;2023-02-15T19:03:14;8.30;66.70
25352;DHT22;13304;48.464;8.712;2023-02-15T19:05:45;8.20;66.90
25352;DHT22;13304;48.464;8.712;2023-02-15T19:08:17;8.20;66.90
25352;DHT22;13304;48.464;8.712;2023-02-15T19:10:45;8.10;66.90
25352;DHT22;13304;48.464;8.712;2023-02-15T19:13:12;8.10;67.00
25352;DHT22;13304;48.464;8.712;2023-02-15T19:15:38;8.10;67.20
25352;DHT22;13304;48.464;8.712;2023-02-15T19:18:04;8.10;67.40
25352;DHT22;13304;48.464;8.712;2023-02-15T19:23:02;8.00;67.30
25352;DHT22;13304;48.464;8.712;2023-02-15T19:25:30;8.00;67.30
25352;DHT22;13304;48.464;8.712;2023-02-15T19:27:57;7.90;67.30
25352;DHT22;13304;48.464;8.712;2023-02-15T19:30:24;7.90;67.30